createdAt,value
2019-02-24T00:00:28.890Z,2.42
2019-02-24T00:02:58.007Z,2.20
2019-02-24T00:05:27.893Z,2.62
2019-02-24T00:07:56.933Z,2.60
2019-02-24T00:10:25.907Z,2.30
2019-02-24T00:12:55.324Z,2.60
2019-02-24T00:15:24.380Z,3.33
2019-02-24T00:17:53.802Z,2.30
2019-02-24T00:20:22.929Z,2.92
2019-02-24T00:22:52.567Z,3.70
2019-02-24T00:25:21.871Z,2.40
2019-02-24T00:27:50.943Z,2.42
2019-02-24T00:30:20.016Z,2.50
2019-02-24T00:32:49.628Z,2.70
2019-02-24T00:35:19.280Z,2.90
2019-02-24T00:37:48.584Z,4.03
2019-02-24T00:40:17.651Z,3.20
2019-02-24T00:42:47.455Z,4.50
2019-02-24T00:45:16.814Z,7.60
2019-02-24T00:47:46.214Z,2.23
2019-02-24T00:50:15.258Z,3.30
2019-02-24T00:52:44.571Z,2.55
2019-02-24T00:55:13.931Z,2.80
2019-02-24T00:57:43.280Z,3.87
2019-02-24T01:00:14.153Z,2.60
2019-02-24T01:02:43.538Z,5.30
2019-02-24T01:05:12.612Z,2.90
2019-02-24T01:07:42.007Z,2.67
2019-02-24T01:10:11.071Z,2.60
2019-02-24T01:12:40.409Z,2.72
2019-02-24T01:15:09.682Z,2.90
2019-02-24T01:17:39.129Z,2.50
2019-02-24T01:20:08.714Z,4.47
2019-02-24T01:22:38.135Z,2.22
2019-02-24T01:25:07.263Z,3.10
2019-02-24T01:27:36.331Z,2.10
2019-02-24T01:30:06.192Z,2.90
2019-02-24T01:32:35.227Z,2.60
2019-02-24T01:35:04.270Z,2.17
2019-02-24T01:37:33.917Z,2.50
2019-02-24T01:40:03.242Z,2.30
2019-02-24T01:42:33.358Z,2.60
2019-02-24T01:45:02.764Z,2.98
2019-02-24T01:47:32.127Z,2.50
2019-02-24T01:50:01.479Z,2.90
2019-02-24T01:52:30.838Z,3.30
2019-02-24T01:55:00.280Z,3.83
2019-02-24T01:57:30.046Z,2.83
2019-02-24T01:59:59.819Z,3.20
2019-02-24T02:02:29.230Z,2.60
2019-02-24T02:04:59.164Z,2.27
2019-02-24T02:07:28.095Z,2.10
2019-02-24T02:09:57.359Z,3.30
2019-02-24T02:12:26.223Z,2.50
2019-02-24T02:14:55.108Z,2.70
2019-02-24T02:17:23.982Z,2.87
2019-02-24T02:19:52.948Z,3.00
2019-02-24T02:22:22.223Z,3.80
2019-02-24T02:24:51.528Z,2.85
2019-02-24T02:27:21.060Z,2.50
2019-02-24T02:29:50.231Z,2.80
2019-02-24T02:32:19.529Z,3.40
2019-02-24T02:34:48.861Z,2.67
2019-02-24T02:37:17.848Z,2.42
2019-02-24T02:39:46.724Z,2.62
2019-02-24T02:42:15.594Z,3.87
2019-02-24T02:44:44.847Z,3.67
2019-02-24T02:47:13.800Z,2.27
2019-02-24T02:49:43.409Z,4.45
2019-02-24T02:52:12.691Z,2.67
2019-02-24T02:54:41.546Z,2.42
2019-02-24T02:57:10.776Z,2.58
2019-02-24T02:59:39.971Z,2.40
2019-02-24T03:02:09.179Z,2.40
2019-02-24T03:04:38.097Z,5.40
2019-02-24T03:07:26.096Z,5.47
2019-02-24T03:09:54.981Z,2.87
2019-02-24T03:12:24.185Z,3.50
2019-02-24T03:14:53.133Z,2.60
2019-02-24T03:17:22.076Z,2.85
2019-02-24T03:19:51.278Z,4.40
2019-02-24T03:22:20.466Z,2.90
2019-02-24T03:24:49.593Z,4.23
2019-02-24T03:27:18.487Z,2.33
2019-02-24T03:29:48.054Z,3.08
2019-02-24T03:32:16.930Z,2.20
2019-02-24T03:34:46.137Z,2.62
2019-02-24T03:37:15.010Z,3.00
2019-02-24T03:39:43.949Z,2.70
2019-02-24T03:42:13.228Z,3.80
2019-02-24T03:44:42.076Z,2.50
2019-02-24T03:47:11.091Z,3.00
2019-02-24T03:49:40.024Z,2.80
2019-02-24T03:52:08.985Z,2.80
2019-02-24T03:54:37.918Z,2.55
2019-02-24T03:57:06.938Z,2.00
2019-02-24T03:59:35.956Z,2.07
2019-02-24T04:02:04.972Z,2.87
2019-02-24T04:04:34.256Z,3.43
2019-02-24T04:07:03.547Z,3.20
2019-02-24T04:09:32.751Z,2.53
2019-02-24T04:12:01.948Z,1.90
2019-02-24T04:14:31.252Z,3.17
2019-02-24T04:17:00.188Z,3.57
2019-02-24T04:19:29.048Z,8.03
2019-02-24T04:21:58.281Z,2.50
2019-02-24T04:24:27.231Z,2.03
2019-02-24T04:26:56.409Z,2.43
2019-02-24T04:29:25.642Z,2.10
2019-02-24T04:31:54.907Z,3.67
2019-02-24T04:34:23.757Z,2.30
2019-02-24T04:36:52.617Z,4.80
2019-02-24T04:39:21.999Z,2.43
2019-02-24T04:41:51.190Z,2.37
2019-02-24T04:44:20.041Z,4.90
2019-02-24T04:46:48.902Z,2.60
2019-02-24T04:49:18.159Z,7.63
2019-02-24T04:51:48.311Z,3.73
2019-02-24T04:54:17.158Z,2.70
2019-02-24T04:56:46.028Z,3.37
2019-02-24T04:59:14.971Z,2.67
2019-02-24T05:01:44.458Z,5.00
2019-02-24T05:04:14.145Z,2.70
2019-02-24T05:06:43.374Z,2.50
2019-02-24T05:09:12.662Z,2.47
2019-02-24T05:11:42.066Z,2.70
2019-02-24T05:14:11.256Z,2.20
2019-02-24T05:16:40.194Z,2.00
2019-02-24T05:19:09.153Z,2.90
2019-02-24T05:21:38.449Z,2.60
2019-02-24T05:24:07.320Z,3.50
2019-02-24T05:26:36.479Z,2.53
2019-02-24T05:29:05.622Z,4.10
2019-02-24T05:31:34.806Z,4.63
2019-02-24T05:34:04.012Z,3.10
2019-02-24T05:36:33.233Z,3.00
2019-02-24T05:39:02.414Z,3.17
2019-02-24T05:41:31.584Z,4.63
2019-02-24T05:44:00.473Z,2.50
2019-02-24T05:46:29.394Z,2.87
2019-02-24T05:48:58.551Z,2.57
2019-02-24T05:51:27.684Z,2.93
2019-02-24T05:53:56.546Z,3.50
2019-02-24T05:56:25.805Z,3.27
2019-02-24T05:58:54.753Z,2.97
2019-02-24T06:01:23.895Z,2.93
2019-02-24T06:03:53.116Z,5.60
2019-02-24T06:06:22.251Z,4.87
2019-02-24T06:08:51.119Z,4.27
2019-02-24T06:11:19.991Z,4.77
2019-02-24T06:13:48.868Z,2.30
2019-02-24T06:16:18.117Z,3.00
2019-02-24T06:18:46.993Z,6.73
2019-02-24T06:21:15.826Z,8.27
2019-02-24T06:23:44.855Z,5.27
2019-02-24T06:26:13.856Z,8.27
2019-02-24T06:28:42.739Z,5.67
2019-02-24T06:31:11.605Z,17.13
2019-02-24T06:33:40.477Z,6.80
2019-02-24T06:36:09.636Z,13.50
2019-02-24T06:38:38.495Z,7.83
2019-02-24T06:41:07.630Z,5.10
2019-02-24T06:43:36.826Z,3.13
2019-02-24T06:46:06.326Z,3.87
2019-02-24T06:48:35.276Z,2.83
2019-02-24T06:51:07.106Z,4.90
2019-02-24T06:53:36.039Z,2.70
2019-02-24T06:56:04.940Z,3.43
2019-02-24T06:58:34.044Z,2.93
2019-02-24T07:01:03.250Z,9.77
2019-02-24T07:03:32.444Z,3.17
2019-02-24T07:06:01.645Z,4.00
2019-02-24T07:08:30.524Z,3.20
2019-02-24T07:10:59.456Z,2.80
2019-02-24T07:13:28.389Z,2.50
2019-02-24T07:15:57.416Z,3.03
2019-02-24T07:18:26.618Z,3.13
2019-02-24T07:20:55.880Z,3.00
2019-02-24T07:23:25.314Z,3.33
2019-02-24T07:25:54.171Z,3.10
2019-02-24T07:28:23.445Z,4.87
2019-02-24T07:30:52.692Z,2.43
2019-02-24T07:33:21.997Z,3.03
2019-02-24T07:35:51.185Z,2.67
2019-02-24T07:38:20.284Z,2.30
2019-02-24T07:40:49.227Z,11.30
2019-02-24T07:43:18.101Z,16.73
2019-02-24T07:45:47.268Z,3.50
2019-02-24T07:48:16.199Z,4.53
2019-02-24T07:50:45.343Z,3.00
2019-02-24T07:53:14.683Z,5.83
2019-02-24T07:55:43.845Z,3.00
2019-02-24T07:58:13.245Z,8.90
2019-02-24T08:00:42.142Z,3.40
2019-02-24T08:03:11.338Z,3.30
2019-02-24T08:05:40.403Z,3.37
2019-02-24T08:08:16.294Z,2.50
2019-02-24T08:10:40.869Z,5.80
2019-02-24T08:13:09.747Z,3.50
2019-02-24T08:15:39.169Z,5.60
2019-02-24T08:18:08.290Z,3.67
2019-02-24T08:20:37.461Z,5.40
2019-02-24T08:23:06.657Z,2.97
2019-02-24T08:25:35.532Z,3.73
2019-02-24T08:28:04.458Z,3.50
2019-02-24T08:30:41.243Z,2.80
2019-02-24T08:33:04.679Z,4.73
2019-02-24T08:35:34.276Z,3.40
2019-02-24T08:38:03.579Z,4.30
2019-02-24T08:40:32.519Z,5.30
2019-02-24T08:43:01.383Z,9.60
2019-02-24T08:45:30.241Z,49.03
2019-02-24T08:47:59.107Z,48.03
2019-02-24T08:50:28.328Z,10.87
2019-02-24T08:52:57.533Z,5.50
2019-02-24T08:55:26.390Z,6.07
2019-02-24T08:57:55.237Z,3.13
2019-02-24T09:00:24.163Z,3.60
2019-02-24T09:02:53.097Z,3.07
2019-02-24T09:05:22.285Z,4.03
2019-02-24T09:07:51.484Z,3.13
2019-02-24T09:10:20.475Z,3.27
2019-02-24T09:12:49.440Z,4.70
2019-02-24T09:15:18.359Z,4.47
2019-02-24T09:17:47.232Z,4.33
2019-02-24T09:20:16.161Z,7.33
2019-02-24T09:22:45.839Z,3.20
2019-02-24T09:25:14.881Z,9.83
2019-02-24T09:27:43.816Z,4.07
2019-02-24T09:30:12.830Z,10.03
2019-02-24T09:32:41.850Z,6.07
2019-02-24T09:35:11.246Z,3.80
2019-02-24T09:37:40.256Z,3.43
2019-02-24T09:40:09.726Z,5.93
2019-02-24T09:42:39.000Z,3.55
2019-02-24T09:45:08.715Z,4.12
2019-02-24T09:47:46.397Z,3.90
2019-02-24T09:50:08.695Z,5.97
2019-02-24T09:52:37.846Z,5.37
2019-02-24T09:55:06.956Z,6.08
2019-02-24T09:57:37.129Z,3.90
2019-02-24T10:00:07.801Z,4.05
2019-02-24T10:02:37.091Z,7.05
2019-02-24T10:05:06.125Z,3.37
2019-02-24T10:07:35.102Z,5.50
2019-02-24T10:10:04.165Z,5.20
2019-02-24T10:12:33.275Z,3.97
2019-02-24T10:15:02.092Z,5.23
2019-02-24T10:17:31.003Z,3.07
2019-02-24T10:20:00.331Z,6.17
2019-02-24T10:22:29.342Z,3.40
2019-02-24T10:24:58.202Z,3.53
2019-02-24T10:27:27.628Z,4.63
2019-02-24T10:29:57.137Z,4.50
2019-02-24T10:32:26.329Z,3.40
2019-02-24T10:34:55.518Z,4.60
2019-02-24T10:37:24.715Z,3.97
2019-02-24T10:39:54.015Z,3.57
2019-02-24T10:42:23.226Z,4.20
2019-02-24T10:44:52.094Z,4.57
2019-02-24T10:47:21.087Z,4.43
2019-02-24T10:49:50.310Z,8.00
2019-02-24T10:52:19.501Z,3.87
2019-02-24T10:54:48.853Z,5.23
2019-02-24T10:57:18.092Z,4.17
2019-02-24T10:59:47.232Z,4.77
2019-02-24T11:02:16.119Z,5.00
2019-02-24T11:04:45.680Z,3.03
2019-02-24T11:07:14.615Z,3.80
2019-02-24T11:09:43.998Z,5.80
2019-02-24T11:12:12.973Z,4.63
2019-02-24T11:14:42.273Z,5.43
2019-02-24T11:17:11.120Z,3.53
2019-02-24T11:19:40.061Z,4.10
2019-02-24T11:22:09.244Z,5.20
2019-02-24T11:24:38.103Z,8.83
2019-02-24T11:27:07.031Z,3.70
2019-02-24T11:29:35.910Z,3.87
2019-02-24T11:32:05.117Z,3.20
2019-02-24T11:34:33.984Z,3.37
2019-02-24T11:37:02.822Z,8.07
2019-02-24T11:39:31.989Z,3.17
2019-02-24T11:42:01.021Z,5.30
2019-02-24T11:44:29.956Z,5.03
2019-02-24T11:46:58.804Z,12.20
2019-02-24T11:49:28.017Z,12.07
2019-02-24T11:52:03.684Z,7.80
2019-02-24T11:54:28.198Z,3.83
2019-02-24T11:56:57.388Z,3.77
2019-02-24T11:59:26.359Z,14.63
2019-02-24T12:01:55.585Z,3.67
2019-02-24T12:04:24.520Z,4.90
2019-02-24T12:06:53.667Z,2.90
2019-02-24T12:09:22.865Z,6.90
2019-02-24T12:11:51.706Z,5.07
2019-02-24T12:14:20.564Z,3.77
2019-02-24T12:16:49.472Z,3.43
2019-02-24T12:19:18.627Z,3.73
2019-02-24T12:21:47.830Z,4.03
2019-02-24T12:24:16.697Z,3.00
2019-02-24T12:26:45.552Z,5.70
2019-02-24T12:29:14.479Z,14.83
2019-02-24T12:31:43.411Z,6.10
2019-02-24T12:34:12.889Z,3.20
2019-02-24T12:36:42.089Z,2.93
2019-02-24T12:39:11.087Z,3.23
2019-02-24T12:41:39.952Z,3.90
2019-02-24T12:44:09.162Z,3.33
2019-02-24T12:46:38.365Z,4.00
2019-02-24T12:49:07.290Z,4.13
2019-02-24T12:51:36.230Z,3.87
2019-02-24T12:54:05.544Z,4.93
2019-02-24T12:56:34.740Z,6.43
2019-02-24T12:59:04.045Z,3.00
2019-02-24T13:01:33.335Z,4.57
2019-02-24T13:04:02.538Z,3.83
2019-02-24T13:06:31.415Z,5.00
2019-02-24T13:09:00.276Z,4.30
2019-02-24T13:11:29.675Z,4.30
2019-02-24T13:13:58.872Z,12.83
2019-02-24T13:16:28.072Z,6.40
2019-02-24T13:18:56.976Z,5.03
2019-02-24T13:21:25.993Z,7.73
2019-02-24T13:23:55.543Z,4.93
2019-02-24T13:26:25.213Z,4.03
2019-02-24T13:28:54.405Z,4.27
2019-02-24T13:31:23.605Z,4.47
2019-02-24T13:33:52.698Z,3.87
2019-02-24T13:36:21.895Z,3.50
2019-02-24T13:38:51.091Z,3.20
2019-02-24T13:41:20.040Z,3.10
2019-02-24T13:43:48.973Z,3.20
2019-02-24T13:46:17.915Z,4.33
2019-02-24T13:48:46.762Z,4.83
2019-02-24T13:51:15.949Z,5.30
2019-02-24T13:53:44.872Z,4.40
2019-02-24T13:56:13.830Z,3.40
2019-02-24T13:58:43.093Z,2.67
2019-02-24T14:01:11.946Z,2.87
2019-02-24T14:03:41.122Z,3.90
2019-02-24T14:06:09.975Z,4.10
2019-02-24T14:08:38.905Z,6.30
2019-02-24T14:11:07.933Z,2.77
2019-02-24T14:13:36.780Z,3.10
2019-02-24T14:16:06.268Z,4.30
2019-02-24T14:18:35.485Z,3.42
2019-02-24T14:21:04.677Z,3.80
2019-02-24T14:23:33.873Z,3.33
2019-02-24T14:26:03.174Z,3.40
2019-02-24T14:28:32.096Z,3.60
2019-02-24T14:31:00.985Z,3.77
2019-02-24T14:33:30.457Z,3.70
2019-02-24T14:35:59.651Z,3.30
2019-02-24T14:38:28.847Z,3.35
2019-02-24T14:40:57.824Z,5.45
2019-02-24T14:43:26.683Z,3.15
2019-02-24T14:45:55.623Z,4.47
2019-02-24T14:48:24.465Z,3.00
2019-02-24T14:50:53.721Z,2.40
2019-02-24T14:53:22.909Z,2.23
2019-02-24T14:55:52.105Z,3.23
2019-02-24T14:58:21.039Z,3.23
2019-02-24T15:00:50.296Z,3.30
2019-02-24T15:03:19.596Z,3.23
2019-02-24T15:05:48.447Z,4.35
2019-02-24T15:08:18.102Z,3.83
2019-02-24T15:10:48.375Z,5.12
2019-02-24T15:13:17.421Z,5.00
2019-02-24T15:15:46.540Z,4.80
2019-02-24T15:18:15.413Z,3.90
2019-02-24T15:20:44.594Z,4.07
2019-02-24T15:23:13.549Z,8.53
2019-02-24T15:25:42.489Z,2.90
2019-02-24T15:28:11.423Z,5.28
2019-02-24T15:30:40.429Z,2.33
2019-02-24T15:33:09.300Z,3.58
2019-02-24T15:35:38.304Z,6.40
2019-02-24T15:38:07.328Z,2.45
2019-02-24T15:40:36.528Z,2.30
2019-02-24T15:43:05.449Z,2.80
2019-02-24T15:45:34.364Z,2.50
2019-02-24T15:48:03.386Z,3.90
2019-02-24T15:50:32.536Z,2.22
2019-02-24T15:53:01.898Z,2.50
2019-02-24T15:55:30.833Z,3.83
2019-02-24T15:57:59.864Z,6.08
2019-02-24T16:00:29.185Z,4.47
2019-02-24T16:03:01.442Z,2.62
2019-02-24T16:05:29.079Z,2.70
2019-02-24T16:07:58.308Z,3.15
2019-02-24T16:10:27.540Z,3.75
2019-02-24T16:12:56.544Z,3.35
2019-02-24T16:15:25.878Z,2.50
2019-02-24T16:17:54.804Z,2.80
2019-02-24T16:20:25.204Z,3.70
2019-02-24T16:22:54.674Z,2.90
2019-02-24T16:25:23.600Z,5.40
2019-02-24T16:27:52.632Z,3.67
2019-02-24T16:30:21.550Z,2.90
2019-02-24T16:32:50.788Z,2.80
2019-02-24T16:35:19.620Z,3.37
2019-02-24T16:37:48.881Z,4.97
2019-02-24T16:40:19.003Z,9.58
2019-02-24T16:42:48.509Z,14.05
2019-02-24T16:45:17.515Z,14.98
2019-02-24T16:47:46.473Z,9.23
2019-02-24T16:50:16.399Z,13.03
2019-02-24T16:52:45.712Z,13.50
2019-02-24T16:55:15.035Z,8.73
2019-02-24T16:57:44.091Z,11.48
2019-02-24T17:00:16.028Z,10.23
2019-02-24T17:02:45.253Z,7.22
2019-02-24T17:05:14.877Z,4.90
2019-02-24T17:07:43.985Z,2.90
2019-02-24T17:10:14.549Z,4.40
2019-02-24T17:12:43.678Z,9.58
2019-02-24T17:15:12.972Z,8.63
2019-02-24T17:17:42.085Z,2.50
2019-02-24T17:20:12.913Z,3.20
2019-02-24T17:22:41.756Z,2.10
2019-02-24T17:25:10.989Z,1.87
2019-02-24T17:27:39.924Z,2.25
2019-02-24T17:30:10.130Z,2.20
2019-02-24T17:32:39.047Z,4.08
2019-02-24T17:35:08.394Z,6.20
2019-02-24T17:37:37.404Z,3.10
2019-02-24T17:40:07.408Z,5.22
2019-02-24T17:42:36.713Z,3.98
2019-02-24T17:45:06.635Z,7.00
2019-02-24T17:47:35.508Z,3.75
2019-02-24T17:50:04.909Z,4.92
2019-02-24T17:52:33.895Z,8.30
2019-02-24T17:55:03.205Z,10.18
2019-02-24T17:57:32.161Z,5.55
2019-02-24T18:00:01.115Z,10.48
2019-02-24T18:02:29.981Z,9.68
2019-02-24T18:04:59.385Z,10.80
2019-02-24T18:07:28.316Z,9.98
2019-02-24T18:09:57.263Z,10.93
2019-02-24T18:12:26.246Z,11.48
2019-02-24T18:14:55.449Z,16.75
2019-02-24T18:17:24.640Z,8.85
2019-02-24T18:19:53.662Z,17.82
2019-02-24T18:22:23.245Z,25.35
2019-02-24T18:24:52.445Z,33.85
2019-02-24T18:27:23.725Z,21.60
2019-02-24T18:29:52.786Z,26.57
2019-02-24T18:32:21.661Z,18.93
2019-02-24T18:34:50.989Z,21.00
2019-02-24T18:37:20.268Z,13.78
2019-02-24T18:39:49.517Z,33.00
2019-02-24T18:42:18.371Z,26.33
2019-02-24T18:44:47.651Z,25.48
2019-02-24T18:47:16.535Z,23.22
2019-02-24T18:49:45.708Z,41.42
2019-02-24T18:52:14.875Z,29.40
2019-02-24T18:54:44.059Z,16.25
2019-02-24T18:57:12.935Z,13.15
2019-02-24T18:59:41.793Z,14.15
2019-02-24T19:02:11.426Z,14.87
2019-02-24T19:04:40.386Z,16.85
2019-02-24T19:07:09.315Z,26.82
2019-02-24T19:09:38.264Z,39.97
2019-02-24T19:12:07.200Z,24.52
2019-02-24T19:14:36.509Z,28.25
2019-02-24T19:17:05.475Z,32.80
2019-02-24T19:19:34.785Z,39.95
2019-02-24T19:22:04.082Z,44.10
2019-02-24T19:24:33.425Z,42.33
2019-02-24T19:27:02.377Z,19.98
2019-02-24T19:29:31.984Z,49.85
2019-02-24T19:32:00.933Z,65.83
2019-02-24T19:34:29.909Z,72.62
2019-02-24T19:36:58.882Z,69.63
2019-02-24T19:39:28.362Z,58.92
2019-02-24T19:41:57.559Z,57.98
2019-02-24T19:44:27.061Z,39.58
2019-02-24T19:46:56.370Z,30.97
2019-02-24T19:49:25.653Z,25.82
2019-02-24T19:51:54.849Z,19.02
2019-02-24T19:54:23.796Z,15.93
2019-02-24T19:56:52.671Z,14.03
2019-02-24T19:59:21.522Z,8.85
2019-02-24T20:01:50.465Z,12.58
2019-02-24T20:04:19.387Z,8.03
2019-02-24T20:06:48.265Z,10.37
2019-02-24T20:09:17.535Z,7.50
2019-02-24T20:11:46.465Z,7.10
2019-02-24T20:14:15.476Z,7.93
2019-02-24T20:16:44.424Z,5.97
2019-02-24T20:19:13.567Z,13.50
2019-02-24T20:21:42.884Z,8.80
2019-02-24T20:24:11.887Z,8.80
2019-02-24T20:26:41.465Z,10.90
2019-02-24T20:29:10.456Z,8.40
2019-02-24T20:31:39.657Z,5.90
2019-02-24T20:34:08.583Z,4.83
2019-02-24T20:36:37.537Z,9.10
2019-02-24T20:39:07.792Z,6.77
2019-02-24T20:41:37.161Z,4.63
2019-02-24T20:44:06.354Z,8.90
2019-02-24T20:46:35.549Z,9.17
2019-02-24T20:49:04.613Z,5.17
2019-02-24T20:51:34.143Z,10.77
2019-02-24T20:54:03.171Z,5.67
2019-02-24T20:56:32.337Z,8.70
2019-02-24T20:59:01.635Z,6.30
2019-02-24T21:01:31.249Z,5.00
2019-02-24T21:04:00.168Z,4.37
2019-02-24T21:06:29.272Z,9.10
2019-02-24T21:08:58.208Z,5.73
2019-02-24T21:11:27.143Z,6.47
2019-02-24T21:13:56.303Z,7.57
2019-02-24T21:16:26.072Z,7.83
2019-02-24T21:18:55.727Z,5.73
2019-02-24T21:21:24.651Z,6.63
2019-02-24T21:23:55.835Z,5.60
2019-02-24T21:26:24.853Z,8.00
2019-02-24T21:28:53.692Z,5.53
2019-02-24T21:31:23.245Z,6.03
2019-02-24T21:33:52.176Z,6.23
2019-02-24T21:36:21.058Z,24.00
2019-02-24T21:38:50.008Z,5.43
2019-02-24T21:41:19.217Z,6.37
2019-02-24T21:43:48.068Z,5.20
2019-02-24T21:46:17.468Z,9.53
2019-02-24T21:48:46.516Z,10.43
2019-02-24T21:51:16.000Z,4.10
2019-02-24T21:53:45.201Z,8.20
2019-02-24T21:56:14.805Z,6.30
2019-02-24T21:58:43.668Z,8.10
2019-02-24T22:01:12.529Z,6.43
2019-02-24T22:03:41.687Z,5.23
2019-02-24T22:06:10.614Z,5.33
2019-02-24T22:08:39.868Z,6.90
2019-02-24T22:11:09.168Z,8.77
2019-02-24T22:13:38.370Z,6.30
2019-02-24T22:16:07.574Z,6.50
2019-02-24T22:18:36.448Z,4.30
2019-02-24T22:21:05.652Z,7.97
2019-02-24T22:23:34.954Z,8.30
2019-02-24T22:26:04.254Z,6.03
2019-02-24T22:28:33.192Z,7.40
2019-02-24T22:31:02.200Z,39.87
2019-02-24T22:33:31.433Z,6.60
2019-02-24T22:36:00.658Z,5.97
2019-02-24T22:38:29.593Z,4.50
2019-02-24T22:40:58.608Z,5.80
2019-02-24T22:43:27.544Z,5.57
2019-02-24T22:45:56.800Z,4.17
2019-02-24T22:48:25.664Z,5.80
2019-02-24T22:50:54.584Z,8.23
2019-02-24T22:53:23.605Z,6.93
2019-02-24T22:55:52.607Z,4.20
2019-02-24T22:58:21.628Z,5.43
2019-02-24T23:01:00.696Z,7.57
2019-02-24T23:03:37.828Z,4.30
2019-02-24T23:06:07.096Z,6.47
2019-02-24T23:08:36.369Z,6.10
2019-02-24T23:11:05.297Z,4.87
2019-02-24T23:13:34.230Z,4.90
2019-02-24T23:16:03.227Z,7.70
2019-02-24T23:18:32.117Z,7.20
2019-02-24T23:21:01.073Z,6.27
2019-02-24T23:23:30.090Z,5.80
2019-02-24T23:25:58.928Z,9.53
2019-02-24T23:28:27.890Z,5.43
2019-02-24T23:30:56.889Z,4.60
2019-02-24T23:33:25.900Z,15.43
2019-02-24T23:35:55.165Z,6.57
2019-02-24T23:38:24.013Z,4.90
2019-02-24T23:40:53.172Z,7.17
2019-02-24T23:43:22.116Z,8.07
2019-02-24T23:45:51.351Z,4.70
2019-02-24T23:48:20.564Z,7.23
2019-02-24T23:50:49.436Z,5.27
2019-02-24T23:53:18.745Z,6.27
2019-02-24T23:55:47.945Z,5.67
2019-02-24T23:58:17.462Z,4.77
